sensor_id;sensor_type;location;lat;lon;timestamp;pressure;altitude;pressure_sealevel;temperature;humidity
4705;BME280;2366;51.332;6.610;2023-02-04T00:01:21;103008.56;;;11.69;64.41
4705;BME280;2366;51.332;6.610;2023-02-04T00:03:46;103011.78;;;11.79;64.30
4705;BME280;2366;51.332;6.610;2023-02-04T00:06:12;103011.91;;;11.76;63.78
4705;BME280;2366;51.332;6.610;2023-02-04T00:08:37;103029.53;;;11.79;62.75
4705;BME280;2366;51.332;6.610;2023-02-04T00:11:03;103026.59;;;11.58;64.67
4705;BME280;2366;51.332;6.610;2023-02-04T00:13:29;103030.56;;;11.73;64.02
4705;BME280;2366;51.332;6.610;2023-02-04T00:15:54;103031.47;;;11.74;63.75
4705;BME280;2366;51.332;6.610;2023-02-04T00:18:20;103039.59;;;11.69;64.14
4705;BME280;2366;51.332;6.610;2023-02-04T00:20:45;103040.66;;;11.62;64.23
4705;BME280;2366;51.332;6.610;2023-02-04T00:23:10;103041.41;;;11.67;63.61
4705;BME280;2366;51.332;6.610;2023-02-04T00:25:37;103043.94;;;11.71;64.30
4705;BME280;2366;51.332;6.610;2023-02-04T00:28:03;103034.75;;;11.82;63.56
4705;BME280;2366;51.332;6.610;2023-02-04T00:30:29;103041.66;;;11.87;63.41
4705;BME280;2366;51.332;6.610;2023-02-04T00:32:54;103038.28;;;11.82;63.48
4705;BME280;2366;51.332;6.610;2023-02-04T00:35:21;103038.97;;;11.59;64.03
4705;BME280;2366;51.332;6.610;2023-02-04T00:37:47;103035.09;;;11.71;64.05
4705;BME280;2366;51.332;6.610;2023-02-04T00:40:13;103029.44;;;11.82;63.71
4705;BME280;2366;51.332;6.610;2023-02-04T00:42:39;103035.53;;;11.85;63.35
4705;BME280;2366;51.332;6.610;2023-02-04T00:45:04;103044.69;;;11.75;63.84
4705;BME280;2366;51.332;6.610;2023-02-04T00:47:30;103041.97;;;11.78;63.61
4705;BME280;2366;51.332;6.610;2023-02-04T00:49:55;103030.50;;;11.76;63.66
4705;BME280;2366;51.332;6.610;2023-02-04T00:52:20;103041.13;;;11.76;63.72
4705;BME280;2366;51.332;6.610;2023-02-04T00:54:46;103048.16;;;11.77;63.75
4705;BME280;2366;51.332;6.610;2023-02-04T00:57:11;103048.25;;;11.76;63.84
4705;BME280;2366;51.332;6.610;2023-02-04T00:59:36;103055.28;;;11.77;63.82
4705;BME280;2366;51.332;6.610;2023-02-04T01:02:02;103051.94;;;11.70;63.62
4705;BME280;2366;51.332;6.610;2023-02-04T01:04:27;103058.19;;;11.69;63.90
4705;BME280;2366;51.332;6.610;2023-02-04T01:06:53;103061.75;;;11.68;64.08
4705;BME280;2366;51.332;6.610;2023-02-04T01:09:19;103059.19;;;11.65;64.30
4705;BME280;2366;51.332;6.610;2023-02-04T01:11:44;103058.25;;;11.66;64.22
4705;BME280;2366;51.332;6.610;2023-02-04T01:14:10;103052.16;;;11.62;63.78
4705;BME280;2366;51.332;6.610;2023-02-04T01:16:36;103052.97;;;11.64;64.41
4705;BME280;2366;51.332;6.610;2023-02-04T01:19:01;103053.94;;;11.62;64.04
4705;BME280;2366;51.332;6.610;2023-02-04T01:21:27;103056.69;;;11.59;63.56
4705;BME280;2366;51.332;6.610;2023-02-04T01:23:52;103055.31;;;11.45;64.27
4705;BME280;2366;51.332;6.610;2023-02-04T01:26:18;103062.22;;;11.51;64.31
4705;BME280;2366;51.332;6.610;2023-02-04T01:28:44;103056.91;;;11.51;64.25
4705;BME280;2366;51.332;6.610;2023-02-04T01:31:09;103065.69;;;11.53;64.12
4705;BME280;2366;51.332;6.610;2023-02-04T01:33:35;103062.97;;;11.56;64.11
4705;BME280;2366;51.332;6.610;2023-02-04T01:36:00;103070.03;;;11.57;63.92
4705;BME280;2366;51.332;6.610;2023-02-04T01:38:26;103076.50;;;11.47;64.20
4705;BME280;2366;51.332;6.610;2023-02-04T01:40:51;103084.44;;;11.48;64.29
4705;BME280;2366;51.332;6.610;2023-02-04T01:43:17;103082.56;;;11.52;63.98
4705;BME280;2366;51.332;6.610;2023-02-04T01:45:44;103082.44;;;11.57;63.65
4705;BME280;2366;51.332;6.610;2023-02-04T01:48:10;103089.75;;;11.48;63.66
4705;BME280;2366;51.332;6.610;2023-02-04T01:50:37;103089.69;;;11.51;64.15
4705;BME280;2366;51.332;6.610;2023-02-04T01:53:03;103088.66;;;11.56;63.95
4705;BME280;2366;51.332;6.610;2023-02-04T01:55:31;103090.44;;;11.55;63.78
4705;BME280;2366;51.332;6.610;2023-02-04T01:57:57;103098.72;;;11.44;63.96
4705;BME280;2366;51.332;6.610;2023-02-04T02:00:28;103087.09;;;11.48;64.06
4705;BME280;2366;51.332;6.610;2023-02-04T02:02:55;103091.38;;;11.54;64.01
4705;BME280;2366;51.332;6.610;2023-02-04T02:05:26;103098.38;;;11.57;63.53
4705;BME280;2366;51.332;6.610;2023-02-04T02:07:55;103097.59;;;11.53;63.82
4705;BME280;2366;51.332;6.610;2023-02-04T02:10:22;103101.09;;;11.54;63.70
4705;BME280;2366;51.332;6.610;2023-02-04T02:12:48;103107.44;;;11.49;63.02
4705;BME280;2366;51.332;6.610;2023-02-04T02:15:14;103110.03;;;11.51;64.01
4705;BME280;2366;51.332;6.610;2023-02-04T02:17:40;103117.03;;;11.54;64.04
4705;BME280;2366;51.332;6.610;2023-02-04T02:20:09;103118.72;;;11.58;63.93
4705;BME280;2366;51.332;6.610;2023-02-04T02:22:43;103130.25;;;11.57;63.73
4705;BME280;2366;51.332;6.610;2023-02-04T02:25:13;103121.63;;;11.48;63.53
4705;BME280;2366;51.332;6.610;2023-02-04T02:27:39;103121.63;;;11.48;64.17
4705;BME280;2366;51.332;6.610;2023-02-04T02:30:07;103128.59;;;11.52;63.74
4705;BME280;2366;51.332;6.610;2023-02-04T02:32:34;103130.44;;;11.50;63.90
4705;BME280;2366;51.332;6.610;2023-02-04T02:35:00;103120.59;;;11.54;64.04
4705;BME280;2366;51.332;6.610;2023-02-04T02:37:26;103123.28;;;11.52;63.98
4705;BME280;2366;51.332;6.610;2023-02-04T02:39:51;103126.34;;;11.39;64.07
4705;BME280;2366;51.332;6.610;2023-02-04T02:42:17;103131.59;;;11.40;64.36
4705;BME280;2366;51.332;6.610;2023-02-04T02:44:44;103135.03;;;11.44;64.64
4705;BME280;2366;51.332;6.610;2023-02-04T02:47:19;103132.50;;;11.39;64.41
4705;BME280;2366;51.332;6.610;2023-02-04T02:49:48;103134.31;;;11.39;64.82
4705;BME280;2366;51.332;6.610;2023-02-04T02:52:14;103135.06;;;11.42;64.75
4705;BME280;2366;51.332;6.610;2023-02-04T02:54:40;103138.66;;;11.41;64.67
4705;BME280;2366;51.332;6.610;2023-02-04T02:57:14;103145.84;;;11.36;64.45
4705;BME280;2366;51.332;6.610;2023-02-04T02:59:40;103144.09;;;11.37;64.89
4705;BME280;2366;51.332;6.610;2023-02-04T03:02:06;103150.25;;;11.39;65.06
4705;BME280;2366;51.332;6.610;2023-02-04T03:04:36;103146.75;;;11.37;65.26
4705;BME280;2366;51.332;6.610;2023-02-04T03:07:03;103146.03;;;11.30;65.41
4705;BME280;2366;51.332;6.610;2023-02-04T03:09:29;103147.78;;;11.31;65.64
4705;BME280;2366;51.332;6.610;2023-02-04T03:11:55;103149.44;;;11.35;65.67
4705;BME280;2366;51.332;6.610;2023-02-04T03:14:21;103155.66;;;11.34;65.63
4705;BME280;2366;51.332;6.610;2023-02-04T03:16:49;103160.16;;;11.32;65.84
4705;BME280;2366;51.332;6.610;2023-02-04T03:19:15;103151.53;;;11.22;65.93
4705;BME280;2366;51.332;6.610;2023-02-04T03:21:41;103155.97;;;11.22;66.26
4705;BME280;2366;51.332;6.610;2023-02-04T03:24:07;103153.47;;;11.16;66.35
4705;BME280;2366;51.332;6.610;2023-02-04T03:26:33;103160.72;;;11.09;66.24
4705;BME280;2366;51.332;6.610;2023-02-04T03:28:58;103162.63;;;11.04;66.57
4705;BME280;2366;51.332;6.610;2023-02-04T03:31:24;103167.97;;;11.02;66.86
4705;BME280;2366;51.332;6.610;2023-02-04T03:33:49;103167.97;;;11.02;66.83
4705;BME280;2366;51.332;6.610;2023-02-04T03:36:14;103168.22;;;10.92;67.12
4705;BME280;2366;51.332;6.610;2023-02-04T03:38:40;103173.50;;;10.93;67.54
4705;BME280;2366;51.332;6.610;2023-02-04T03:41:05;103173.44;;;10.96;67.66
4705;BME280;2366;51.332;6.610;2023-02-04T03:43:31;103166.38;;;10.95;67.53
4705;BME280;2366;51.332;6.610;2023-02-04T03:45:56;103171.69;;;10.95;67.49
4705;BME280;2366;51.332;6.610;2023-02-04T03:48:22;103172.72;;;10.88;67.66
4705;BME280;2366;51.332;6.610;2023-02-04T03:50:47;103175.59;;;10.79;67.89
4705;BME280;2366;51.332;6.610;2023-02-04T03:53:12;103178.59;;;10.65;68.31
4705;BME280;2366;51.332;6.610;2023-02-04T03:55:38;103171.56;;;10.62;68.44
4705;BME280;2366;51.332;6.610;2023-02-04T03:58:03;103181.38;;;10.59;68.43
4705;BME280;2366;51.332;6.610;2023-02-04T04:00:29;103178.94;;;10.50;68.66
4705;BME280;2366;51.332;6.610;2023-02-04T04:02:56;103179.00;;;10.45;68.93
4705;BME280;2366;51.332;6.610;2023-02-04T04:05:22;103176.38;;;10.45;69.32
4705;BME280;2366;51.332;6.610;2023-02-04T04:07:47;103177.25;;;10.45;69.50
4705;BME280;2366;51.332;6.610;2023-02-04T04:10:13;103174.66;;;10.42;69.33
4705;BME280;2366;51.332;6.610;2023-02-04T04:12:38;103182.59;;;10.44;69.44
4705;BME280;2366;51.332;6.610;2023-02-04T04:15:04;103177.16;;;10.50;69.45
4705;BME280;2366;51.332;6.610;2023-02-04T04:17:30;103186.00;;;10.49;70.06
4705;BME280;2366;51.332;6.610;2023-02-04T04:19:55;103199.22;;;10.52;70.04
4705;BME280;2366;51.332;6.610;2023-02-04T04:22:20;103193.84;;;10.55;69.78
4705;BME280;2366;51.332;6.610;2023-02-04T04:24:46;103202.75;;;10.53;69.73
4705;BME280;2366;51.332;6.610;2023-02-04T04:27:11;103207.09;;;10.55;69.89
4705;BME280;2366;51.332;6.610;2023-02-04T04:29:37;103203.81;;;10.44;70.26
4705;BME280;2366;51.332;6.610;2023-02-04T04:32:02;103204.56;;;10.49;70.27
4705;BME280;2366;51.332;6.610;2023-02-04T04:34:29;103202.72;;;10.54;70.15
4705;BME280;2366;51.332;6.610;2023-02-04T04:36:54;103206.22;;;10.55;70.43
4705;BME280;2366;51.332;6.610;2023-02-04T04:39:20;103201.75;;;10.58;70.14
4705;BME280;2366;51.332;6.610;2023-02-04T04:41:46;103201.66;;;10.61;70.14
4705;BME280;2366;51.332;6.610;2023-02-04T04:44:11;103210.47;;;10.62;70.08
4705;BME280;2366;51.332;6.610;2023-02-04T04:46:37;103209.53;;;10.64;69.94
4705;BME280;2366;51.332;6.610;2023-02-04T04:49:05;103217.47;;;10.66;70.00
4705;BME280;2366;51.332;6.610;2023-02-04T04:51:30;103221.94;;;10.64;69.90
4705;BME280;2366;51.332;6.610;2023-02-04T04:53:56;103228.28;;;10.58;69.74
4705;BME280;2366;51.332;6.610;2023-02-04T04:56:22;103216.72;;;10.61;69.00
4705;BME280;2366;51.332;6.610;2023-02-04T04:58:47;103216.22;;;10.42;70.57
4705;BME280;2366;51.332;6.610;2023-02-04T05:01:12;103219.66;;;10.47;70.41
4705;BME280;2366;51.332;6.610;2023-02-04T05:03:38;103224.25;;;10.39;70.43
4705;BME280;2366;51.332;6.610;2023-02-04T05:06:03;103232.22;;;10.39;70.10
4705;BME280;2366;51.332;6.610;2023-02-04T05:08:29;103228.72;;;10.37;70.76
4705;BME280;2366;51.332;6.610;2023-02-04T05:10:54;103228.66;;;10.40;70.36
4705;BME280;2366;51.332;6.610;2023-02-04T05:13:19;103230.44;;;10.39;70.66
4705;BME280;2366;51.332;6.610;2023-02-04T05:15:45;103232.25;;;10.36;70.67
4705;BME280;2366;51.332;6.610;2023-02-04T05:18:10;103235.84;;;10.35;70.63
4705;BME280;2366;51.332;6.610;2023-02-04T05:20:36;103237.59;;;10.34;70.71
4705;BME280;2366;51.332;6.610;2023-02-04T05:23:01;103242.84;;;10.39;70.79
4705;BME280;2366;51.332;6.610;2023-02-04T05:25:27;103238.44;;;10.36;70.82
4705;BME280;2366;51.332;6.610;2023-02-04T05:27:53;103241.00;;;10.41;70.66
4705;BME280;2366;51.332;6.610;2023-02-04T05:30:18;103241.00;;;10.41;70.77
4705;BME280;2366;51.332;6.610;2023-02-04T05:32:44;103244.66;;;10.35;70.70
4705;BME280;2366;51.332;6.610;2023-02-04T05:35:09;103253.59;;;10.30;70.62
4705;BME280;2366;51.332;6.610;2023-02-04T05:37:35;103248.34;;;10.26;71.03
4705;BME280;2366;51.332;6.610;2023-02-04T05:40:00;103257.19;;;10.25;69.90
4705;BME280;2366;51.332;6.610;2023-02-04T05:42:25;103256.31;;;10.25;71.25
4705;BME280;2366;51.332;6.610;2023-02-04T05:44:51;103263.41;;;10.24;71.16
4705;BME280;2366;51.332;6.610;2023-02-04T05:47:16;103265.28;;;10.19;71.16
4705;BME280;2366;51.332;6.610;2023-02-04T05:49:44;103269.66;;;10.22;71.47
4705;BME280;2366;51.332;6.610;2023-02-04T05:52:09;103276.75;;;10.21;71.15
4705;BME280;2366;51.332;6.610;2023-02-04T05:54:35;103274.13;;;10.18;71.43
4705;BME280;2366;51.332;6.610;2023-02-04T05:57:00;103273.19;;;10.21;71.21
4705;BME280;2366;51.332;6.610;2023-02-04T05:59:25;103274.09;;;10.21;71.20
4705;BME280;2366;51.332;6.610;2023-02-04T06:01:51;103272.16;;;10.30;71.53
4705;BME280;2366;51.332;6.610;2023-02-04T06:04:16;103281.91;;;10.29;70.43
4705;BME280;2366;51.332;6.610;2023-02-04T06:06:42;103286.34;;;10.25;71.49
4705;BME280;2366;51.332;6.610;2023-02-04T06:09:08;103288.91;;;10.33;71.16
4705;BME280;2366;51.332;6.610;2023-02-04T06:11:33;103294.13;;;10.36;71.46
4705;BME280;2366;51.332;6.610;2023-02-04T06:13:58;103291.44;;;10.39;70.89
4705;BME280;2366;51.332;6.610;2023-02-04T06:16:24;103289.56;;;10.43;71.01
4705;BME280;2366;51.332;6.610;2023-02-04T06:18:49;103294.88;;;10.44;70.84
4705;BME280;2366;51.332;6.610;2023-02-04T06:21:14;103292.19;;;10.46;70.83
4705;BME280;2366;51.332;6.610;2023-02-04T06:23:40;103298.34;;;10.46;70.94
4705;BME280;2366;51.332;6.610;2023-02-04T06:26:05;103301.00;;;10.48;70.92
4705;BME280;2366;51.332;6.610;2023-02-04T06:28:30;103295.69;;;10.48;70.83
4705;BME280;2366;51.332;6.610;2023-02-04T06:30:56;103295.69;;;10.48;70.28
4705;BME280;2366;51.332;6.610;2023-02-04T06:33:21;103295.66;;;10.50;70.40
4705;BME280;2366;51.332;6.610;2023-02-04T06:35:48;103301.84;;;10.48;70.71
4705;BME280;2366;51.332;6.610;2023-02-04T06:38:13;103300.16;;;10.46;70.52
4705;BME280;2366;51.332;6.610;2023-02-04T06:40:39;103310.78;;;10.44;70.92
4705;BME280;2366;51.332;6.610;2023-02-04T06:43:04;103303.69;;;10.45;70.39
4705;BME280;2366;51.332;6.610;2023-02-04T06:45:29;103301.94;;;10.44;70.56
4705;BME280;2366;51.332;6.610;2023-02-04T06:47:55;103309.00;;;10.45;70.49
4705;BME280;2366;51.332;6.610;2023-02-04T06:50:20;103305.28;;;10.54;70.14
4705;BME280;2366;51.332;6.610;2023-02-04T06:52:46;103310.53;;;10.57;70.12
4705;BME280;2366;51.332;6.610;2023-02-04T06:55:12;103311.41;;;10.57;69.92
4705;BME280;2366;51.332;6.610;2023-02-04T06:57:38;103316.72;;;10.57;69.86
4705;BME280;2366;51.332;6.610;2023-02-04T07:00:05;103319.38;;;10.57;69.98
4705;BME280;2366;51.332;6.610;2023-02-04T07:02:30;103316.72;;;10.57;69.79
4705;BME280;2366;51.332;6.610;2023-02-04T07:04:55;103323.72;;;10.60;69.90
4705;BME280;2366;51.332;6.610;2023-02-04T07:07:21;103337.19;;;10.51;70.26
4705;BME280;2366;51.332;6.610;2023-02-04T07:09:46;103327.50;;;10.48;70.37
4705;BME280;2366;51.332;6.610;2023-02-04T07:12:11;103328.38;;;10.48;70.37
4705;BME280;2366;51.332;6.610;2023-02-04T07:14:37;103335.47;;;10.48;70.23
4705;BME280;2366;51.332;6.610;2023-02-04T07:17:02;103331.91;;;10.49;70.29
4705;BME280;2366;51.332;6.610;2023-02-04T07:19:28;103333.66;;;10.50;70.40
4705;BME280;2366;51.332;6.610;2023-02-04T07:21:53;103345.13;;;10.52;70.13
4705;BME280;2366;51.332;6.610;2023-02-04T07:24:21;103343.31;;;10.54;70.22
4705;BME280;2366;51.332;6.610;2023-02-04T07:26:47;103338.00;;;10.54;69.81
4705;BME280;2366;51.332;6.610;2023-02-04T07:29:12;103337.19;;;10.51;70.29
4705;BME280;2366;51.332;6.610;2023-02-04T07:31:37;103344.09;;;10.58;70.50
4705;BME280;2366;51.332;6.610;2023-02-04T07:34:03;103337.84;;;10.62;70.26
4705;BME280;2366;51.332;6.610;2023-02-04T07:36:28;103348.66;;;10.51;69.98
4705;BME280;2366;51.332;6.610;2023-02-04T07:38:53;103346.84;;;10.53;70.18
4705;BME280;2366;51.332;6.610;2023-02-04T07:41:19;103350.25;;;10.61;70.33
4705;BME280;2366;51.332;6.610;2023-02-04T07:43:45;103351.84;;;10.68;70.50
4705;BME280;2366;51.332;6.610;2023-02-04T07:46:10;103360.63;;;10.74;70.17
4705;BME280;2366;51.332;6.610;2023-02-04T07:48:36;103350.88;;;10.74;69.84
4705;BME280;2366;51.332;6.610;2023-02-04T07:51:01;103360.53;;;10.78;69.78
4705;BME280;2366;51.332;6.610;2023-02-04T07:53:27;103365.72;;;10.83;69.86
4705;BME280;2366;51.332;6.610;2023-02-04T07:55:52;103363.84;;;10.88;69.92
4705;BME280;2366;51.332;6.610;2023-02-04T07:58:17;103362.00;;;10.93;69.57
4705;BME280;2366;51.332;6.610;2023-02-04T08:00:43;103374.22;;;11.00;69.62
4705;BME280;2366;51.332;6.610;2023-02-04T08:03:08;103382.09;;;11.03;69.07
4705;BME280;2366;51.332;6.610;2023-02-04T08:05:34;103381.34;;;10.98;69.14
4705;BME280;2366;51.332;6.610;2023-02-04T08:07:59;103385.50;;;11.10;69.28
4705;BME280;2366;51.332;6.610;2023-02-04T08:10:26;103390.66;;;11.18;69.29
4705;BME280;2366;51.332;6.610;2023-02-04T08:12:51;103389.59;;;11.25;68.77
4705;BME280;2366;51.332;6.610;2023-02-04T08:15:17;103396.59;;;11.29;68.78
4705;BME280;2366;51.332;6.610;2023-02-04T08:17:42;103400.78;;;11.41;68.66
4705;BME280;2366;51.332;6.610;2023-02-04T08:20:08;103395.28;;;11.48;68.40
4705;BME280;2366;51.332;6.610;2023-02-04T08:22:33;103404.13;;;11.49;65.76
4705;BME280;2366;51.332;6.610;2023-02-04T08:24:59;103406.94;;;11.43;67.66
4705;BME280;2366;51.332;6.610;2023-02-04T08:27:24;103413.84;;;11.50;67.83
4705;BME280;2366;51.332;6.610;2023-02-04T08:29:50;103410.97;;;11.59;67.29
4705;BME280;2366;51.332;6.610;2023-02-04T08:32:15;103415.19;;;11.68;67.66
4705;BME280;2366;51.332;6.610;2023-02-04T08:34:41;103416.66;;;11.81;67.14
4705;BME280;2366;51.332;6.610;2023-02-04T08:37:06;103419.94;;;11.92;66.59
4705;BME280;2366;51.332;6.610;2023-02-04T08:39:32;103426.75;;;12.06;65.18
4705;BME280;2366;51.332;6.610;2023-02-04T08:41:57;103429.84;;;12.23;65.15
4705;BME280;2366;51.332;6.610;2023-02-04T08:44:23;103428.38;;;12.46;65.06
4705;BME280;2366;51.332;6.610;2023-02-04T08:46:48;103426.91;;;12.67;64.49
4705;BME280;2366;51.332;6.610;2023-02-04T08:49:14;103437.78;;;12.58;63.47
4705;BME280;2366;51.332;6.610;2023-02-04T08:51:39;103439.84;;;12.48;62.97
4705;BME280;2366;51.332;6.610;2023-02-04T08:54:05;103444.44;;;12.43;63.78
4705;BME280;2366;51.332;6.610;2023-02-04T08:56:30;103434.78;;;12.39;63.46
4705;BME280;2366;51.332;6.610;2023-02-04T08:58:55;103442.78;;;12.37;64.36
4705;BME280;2366;51.332;6.610;2023-02-04T09:01:21;103454.88;;;12.49;63.69
4705;BME280;2366;51.332;6.610;2023-02-04T09:03:46;103449.47;;;12.53;63.74
4705;BME280;2366;51.332;6.610;2023-02-04T09:06:12;103454.59;;;12.60;64.07
4705;BME280;2366;51.332;6.610;2023-02-04T09:08:37;103466.03;;;12.63;63.62
4705;BME280;2366;51.332;6.610;2023-02-04T09:11:04;103453.44;;;12.70;63.68
4705;BME280;2366;51.332;6.610;2023-02-04T09:13:30;103463.09;;;12.74;63.62
4705;BME280;2366;51.332;6.610;2023-02-04T09:15:57;103461.94;;;12.84;62.91
4705;BME280;2366;51.332;6.610;2023-02-04T09:18:22;103457.66;;;12.79;62.67
4705;BME280;2366;51.332;6.610;2023-02-04T09:20:50;103463.53;;;12.90;62.78
4705;BME280;2366;51.332;6.610;2023-02-04T09:23:16;103465.88;;;13.02;62.39
4705;BME280;2366;51.332;6.610;2023-02-04T09:25:43;103463.03;;;13.08;62.45
4705;BME280;2366;51.332;6.610;2023-02-04T09:28:10;103467.53;;;13.06;61.46
4705;BME280;2366;51.332;6.610;2023-02-04T09:30:40;103466.03;;;12.96;61.73
4705;BME280;2366;51.332;6.610;2023-02-04T09:33:07;103472.28;;;12.95;62.49
4705;BME280;2366;51.332;6.610;2023-02-04T09:35:33;103475.69;;;13.00;62.40
4705;BME280;2366;51.332;6.610;2023-02-04T09:37:58;103466.69;;;13.04;62.64
4705;BME280;2366;51.332;6.610;2023-02-04T09:40:26;103472.84;;;13.06;62.22
4705;BME280;2366;51.332;6.610;2023-02-04T09:42:52;103465.84;;;13.04;61.60
4705;BME280;2366;51.332;6.610;2023-02-04T09:45:24;103469.53;;;12.98;61.89
4705;BME280;2366;51.332;6.610;2023-02-04T09:47:52;103464.50;;;12.87;62.38
4705;BME280;2366;51.332;6.610;2023-02-04T09:50:21;103468.53;;;12.71;62.13
4705;BME280;2366;51.332;6.610;2023-02-04T09:52:48;103478.09;;;12.77;62.83
4705;BME280;2366;51.332;6.610;2023-02-04T09:55:20;103473.59;;;12.80;62.61
4705;BME280;2366;51.332;6.610;2023-02-04T09:57:46;103480.56;;;12.84;62.92
4705;BME280;2366;51.332;6.610;2023-02-04T10:00:20;103490.59;;;12.74;62.64
4705;BME280;2366;51.332;6.610;2023-02-04T10:02:46;103495.50;;;12.21;63.41
4705;BME280;2366;51.332;6.610;2023-02-04T10:05:20;103488.84;;;12.39;64.39
4705;BME280;2366;51.332;6.610;2023-02-04T10:07:49;103494.72;;;12.53;61.91
4705;BME280;2366;51.332;6.610;2023-02-04T10:10:20;103508.94;;;12.51;63.03
4705;BME280;2366;51.332;6.610;2023-02-04T10:12:47;103492.81;;;12.57;63.03
4705;BME280;2366;51.332;6.610;2023-02-04T10:15:16;103500.19;;;12.82;62.88
4705;BME280;2366;51.332;6.610;2023-02-04T10:17:47;103498.94;;;13.25;63.01
4705;BME280;2366;51.332;6.610;2023-02-04T10:20:16;103501.59;;;13.58;61.60
4705;BME280;2366;51.332;6.610;2023-02-04T10:22:42;103496.00;;;13.65;60.69
4705;BME280;2366;51.332;6.610;2023-02-04T10:25:17;103496.19;;;13.89;60.37
4705;BME280;2366;51.332;6.610;2023-02-04T10:27:57;103498.69;;;14.22;59.73
4705;BME280;2366;51.332;6.610;2023-02-04T10:30:29;103489.78;;;14.48;59.17
4705;BME280;2366;51.332;6.610;2023-02-04T10:32:58;103489.38;;;14.62;56.87
4705;BME280;2366;51.332;6.610;2023-02-04T10:35:24;103497.78;;;14.48;57.24
4705;BME280;2366;51.332;6.610;2023-02-04T10:38:06;103498.31;;;14.06;57.09
4705;BME280;2366;51.332;6.610;2023-02-04T10:40:33;103496.56;;;14.05;58.94
4705;BME280;2366;51.332;6.610;2023-02-04T10:43:06;103494.28;;;14.21;57.86
4705;BME280;2366;51.332;6.610;2023-02-04T10:45:34;103492.53;;;14.20;56.89
4705;BME280;2366;51.332;6.610;2023-02-04T10:47:59;103488.16;;;14.17;57.00
4705;BME280;2366;51.332;6.610;2023-02-04T10:50:26;103490.31;;;14.06;57.78
4705;BME280;2366;51.332;6.610;2023-02-04T10:52:57;103491.03;;;14.37;57.55
4705;BME280;2366;51.332;6.610;2023-02-04T10:55:43;103493.63;;;14.92;57.05
4705;BME280;2366;51.332;6.610;2023-02-04T10:58:11;103483.91;;;15.13;54.88
4705;BME280;2366;51.332;6.610;2023-02-04T11:00:39;103481.97;;;15.42;54.84
4705;BME280;2366;51.332;6.610;2023-02-04T11:03:26;103488.41;;;15.60;53.92
4705;BME280;2366;51.332;6.610;2023-02-04T11:05:56;103489.22;;;15.62;52.95
4705;BME280;2366;51.332;6.610;2023-02-04T11:08:33;103487.06;;;15.48;53.86
4705;BME280;2366;51.332;6.610;2023-02-04T11:11:08;103491.22;;;14.85;53.84
4705;BME280;2366;51.332;6.610;2023-02-04T11:13:44;103490.66;;;14.22;54.58
4705;BME280;2366;51.332;6.610;2023-02-04T11:16:24;103493.13;;;14.01;56.22
4705;BME280;2366;51.332;6.610;2023-02-04T11:18:54;103500.28;;;14.27;56.28
4705;BME280;2366;51.332;6.610;2023-02-04T11:21:27;103490.09;;;14.65;55.91
4705;BME280;2366;51.332;6.610;2023-02-04T11:26:42;103489.66;;;15.03;55.01
4705;BME280;2366;51.332;6.610;2023-02-04T11:39:31;103489.63;;;15.75;53.58
4705;BME280;2366;51.332;6.610;2023-02-04T11:41:59;103495.13;;;15.70;52.46
4705;BME280;2366;51.332;6.610;2023-02-04T11:44:25;103487.97;;;15.71;52.20
4705;BME280;2366;51.332;6.610;2023-02-04T11:46:52;103486.72;;;15.57;51.90
4705;BME280;2366;51.332;6.610;2023-02-04T11:49:22;103488.81;;;15.49;52.04
4705;BME280;2366;51.332;6.610;2023-02-04T11:51:49;103483.25;;;15.55;52.14
4705;BME280;2366;51.332;6.610;2023-02-04T11:54:16;103486.34;;;15.67;52.05
4705;BME280;2366;51.332;6.610;2023-02-04T11:56:44;103486.09;;;15.51;52.08
4705;BME280;2366;51.332;6.610;2023-02-04T11:59:11;103491.13;;;15.58;52.39
4705;BME280;2366;51.332;6.610;2023-02-04T12:01:38;103483.97;;;15.59;52.15
4705;BME280;2366;51.332;6.610;2023-02-04T12:04:06;103484.56;;;15.44;51.65
4705;BME280;2366;51.332;6.610;2023-02-04T12:06:34;103482.28;;;15.09;52.50
4705;BME280;2366;51.332;6.610;2023-02-04T12:11:51;103476.41;;;15.25;52.63
4705;BME280;2366;51.332;6.610;2023-02-04T12:14:18;103484.28;;;15.28;52.00
4705;BME280;2366;51.332;6.610;2023-02-04T12:16:44;103482.31;;;15.33;51.78
4705;BME280;2366;51.332;6.610;2023-02-04T12:19:10;103487.06;;;15.01;51.92
4705;BME280;2366;51.332;6.610;2023-02-04T12:21:37;103486.03;;;14.80;53.08
4705;BME280;2366;51.332;6.610;2023-02-04T12:24:02;103488.88;;;15.24;52.56
4705;BME280;2366;51.332;6.610;2023-02-04T12:26:28;103496.88;;;15.48;51.20
4705;BME280;2366;51.332;6.610;2023-02-04T12:28:53;103491.44;;;15.51;51.27
4705;BME280;2366;51.332;6.610;2023-02-04T12:31:19;103502.53;;;15.64;51.53
4705;BME280;2366;51.332;6.610;2023-02-04T12:33:44;103498.56;;;15.74;50.87
4705;BME280;2366;51.332;6.610;2023-02-04T12:36:10;103485.00;;;15.78;50.74
4705;BME280;2366;51.332;6.610;2023-02-04T12:38:36;103497.81;;;15.70;50.27
4705;BME280;2366;51.332;6.610;2023-02-04T12:41:01;103491.13;;;15.58;49.29
4705;BME280;2366;51.332;6.610;2023-02-04T12:43:26;103494.16;;;15.49;50.54
4705;BME280;2366;51.332;6.610;2023-02-04T12:45:52;103502.63;;;15.60;50.05
4705;BME280;2366;51.332;6.610;2023-02-04T12:48:17;103501.50;;;15.44;49.22
4705;BME280;2366;51.332;6.610;2023-02-04T12:50:42;103505.41;;;15.35;50.44
4705;BME280;2366;51.332;6.610;2023-02-04T12:53:09;103502.75;;;15.10;50.60
4705;BME280;2366;51.332;6.610;2023-02-04T12:55:35;103498.66;;;14.48;50.84
4705;BME280;2366;51.332;6.610;2023-02-04T12:58:00;103509.47;;;14.45;52.48
4705;BME280;2366;51.332;6.610;2023-02-04T13:00:26;103496.47;;;14.61;51.69
4705;BME280;2366;51.332;6.610;2023-02-04T13:02:52;103506.34;;;14.59;52.33
4705;BME280;2366;51.332;6.610;2023-02-04T13:05:19;103501.06;;;14.57;53.60
4705;BME280;2366;51.332;6.610;2023-02-04T13:07:45;103502.66;;;14.88;52.85
4705;BME280;2366;51.332;6.610;2023-02-04T13:10:11;103490.31;;;15.09;52.29
4705;BME280;2366;51.332;6.610;2023-02-04T13:12:38;103495.66;;;15.09;51.27
4705;BME280;2366;51.332;6.610;2023-02-04T13:15:04;103490.88;;;14.94;51.63
4705;BME280;2366;51.332;6.610;2023-02-04T13:17:30;103496.56;;;14.85;51.35
4705;BME280;2366;51.332;6.610;2023-02-04T13:19:55;103493.53;;;14.94;51.90
4705;BME280;2366;51.332;6.610;2023-02-04T13:22:21;103485.22;;;15.03;51.30